Time;durP1;ratioP1;P1;durP2;ratioP2;P2;SDS_P1;SDS_P2;PMS_P1;PMS_P2;Temp;Humidity;BMP_temperature;BMP_pressure;BME280_temperature;BME280_humidity;BME280_pressure;Samples;Min_cycle;Max_cycle;Signal;HPM_P1;HPM_P2
2022/05/30 00:01:21;;;;;;;0.80;0.80;;;14.50;99.90;;;;;;4193784;28;20239;-46
2022/05/30 00:03:45;;;;;;;2.22;0.90;;;14.40;99.90;;;;;;4194112;28;20518;-46
2022/05/30 00:06:09;;;;;;;1.02;0.90;;;14.40;99.90;;;;;;4193941;28;20052;-46
2022/05/30 00:08:29;;;;;;;3.38;0.80;;;14.50;99.90;;;;;;4194123;28;20090;-46
2022/05/30 00:10:51;;;;;;;1.85;0.80;;;14.50;99.90;;;;;;4192760;28;20140;-48
2022/05/30 00:13:14;;;;;;;0.90;0.90;;;14.50;99.90;;;;;;4177568;28;20060;-46
2022/05/30 00:15:36;;;;;;;;;;;14.50;99.90;;;;;;4177907;28;20056;-45
2022/05/30 00:17:58;;;;;;;3.37;1.83;;;14.40;99.90;;;;;;4186408;28;19974;-46
2022/05/30 00:20:19;;;;;;;0.80;0.80;;;14.40;99.90;;;;;;4193710;28;20102;-50
2022/05/30 00:22:40;;;;;;;0.82;0.80;;;14.40;99.90;;;;;;4178710;28;20462;-49
2022/05/30 00:25:01;;;;;;;0.95;0.90;;;14.40;99.90;;;;;;4177377;28;20134;-47
2022/05/30 00:27:22;;;;;;;2.15;0.90;;;14.40;99.90;;;;;;4176936;28;20059;-46
2022/05/30 00:29:44;;;;;;;1.48;0.80;;;14.40;99.90;;;;;;4177176;28;20043;-48
2022/05/30 00:32:06;;;;;;;0.70;0.70;;;14.40;99.90;;;;;;4187041;28;20052;-50
2022/05/30 00:34:27;;;;;;;0.80;0.80;;;14.40;99.90;;;;;;4193657;28;20048;-48
2022/05/30 00:36:49;;;;;;;0.70;0.70;;;14.30;99.90;;;;;;4193857;28;20056;-47
2022/05/30 00:39:10;;;;;;;1.65;0.80;;;14.30;99.90;;;;;;4193554;28;20079;-49
2022/05/30 00:41:35;;;;;;;1.30;0.80;;;14.20;99.90;;;;;;4201863;28;20098;-47
2022/05/30 00:43:56;;;;;;;0.80;0.80;;;14.30;99.90;;;;;;4200776;28;20052;-47
2022/05/30 00:46:17;;;;;;;1.65;0.80;;;14.40;99.90;;;;;;4193829;28;20106;-48
2022/05/30 00:48:47;;;;;;;1.02;0.90;;;14.40;99.90;;;;;;4193527;28;20060;-47
2022/05/30 00:51:14;;;;;;;0.80;0.80;;;14.30;99.90;;;;;;4192631;28;20075;-46
2022/05/30 00:53:38;;;;;;;1.20;0.80;;;14.30;99.90;;;;;;4193751;28;20047;-46
2022/05/30 00:55:58;;;;;;;;;;;14.30;99.90;;;;;;4193838;28;20067;-48
2022/05/30 00:58:21;;;;;;;0.80;0.80;;;14.40;99.90;;;;;;4192461;28;19932;-46
2022/05/30 01:00:42;;;;;;;0.80;0.80;;;14.40;99.90;;;;;;4194291;28;20132;-46
2022/05/30 01:08:26;;;;;;;1.13;1.02;;;14.40;99.90;;;;;;4184913;28;20163;-47
2022/05/30 01:10:47;;;;;;;0.85;0.85;;;14.30;99.90;;;;;;4180670;28;20052;-46
2022/05/30 01:13:12;;;;;;;1.02;0.80;;;14.20;99.90;;;;;;4195192;28;20419;-49
2022/05/30 01:15:33;;;;;;;4.00;0.90;;;14.20;99.90;;;;;;4196559;28;20110;-48
2022/05/30 01:18:00;;;;;;;0.80;0.80;;;14.30;99.90;;;;;;4193798;28;20574;-46
2022/05/30 01:20:32;;;;;;;1.70;0.80;;;14.30;99.90;;;;;;4196132;28;20056;-46
2022/05/30 01:22:58;;;;;;;0.70;0.70;;;14.30;99.90;;;;;;4196258;28;20526;-46
2022/05/30 01:25:27;;;;;;;0.85;0.85;;;14.20;99.90;;;;;;4194843;28;20459;-46
2022/05/30 01:28:06;;;;;;;0.73;0.70;;;14.30;99.90;;;;;;4196323;28;20051;-47
2022/05/30 01:30:27;;;;;;;0.90;0.90;;;14.30;99.90;;;;;;4196153;28;20144;-48
2022/05/30 01:32:49;;;;;;;1.08;1.08;;;14.20;99.90;;;;;;4196163;28;20051;-47
2022/05/30 01:35:10;;;;;;;0.80;0.80;;;14.30;99.90;;;;;;4195048;28;20078;-46
2022/05/30 01:37:31;;;;;;;0.90;0.90;;;14.40;99.90;;;;;;4196561;28;20123;-47
2022/05/30 01:39:52;;;;;;;1.70;0.80;;;14.30;99.90;;;;;;4195907;28;20075;-47
2022/05/30 01:42:15;;;;;;;0.88;0.80;;;14.30;99.90;;;;;;4196012;28;20102;-48
2022/05/30 01:44:36;;;;;;;0.80;0.80;;;14.30;99.90;;;;;;4179766;28;20511;-47
2022/05/30 01:46:57;;;;;;;0.80;0.80;;;14.30;99.90;;;;;;4179382;28;20096;-46
2022/05/30 01:49:18;;;;;;;0.93;0.93;;;14.20;99.90;;;;;;4180748;28;20111;-49
2022/05/30 01:51:39;;;;;;;0.70;0.70;;;14.20;99.90;;;;;;4195694;28;20201;-49
2022/05/30 01:54:00;;;;;;;1.40;0.80;;;14.30;99.90;;;;;;4194713;28;20488;-47
2022/05/30 01:56:21;;;;;;;0.90;0.90;;;14.40;99.90;;;;;;4195851;28;20051;-46
2022/05/30 01:58:43;;;;;;;1.08;0.80;;;14.40;99.90;;;;;;4196048;28;20565;-47
2022/05/30 02:01:12;;;;;;;0.80;0.80;;;14.30;99.90;;;;;;4179022;28;20048;-47
2022/05/30 02:03:34;;;;;;;0.80;0.80;;;14.30;99.90;;;;;;4189667;28;20129;-48
2022/05/30 02:05:54;;;;;;;1.48;0.82;;;14.30;99.90;;;;;;4199699;28;20132;-47
2022/05/30 02:08:20;;;;;;;0.82;0.82;;;14.30;99.90;;;;;;4201018;28;20571;-47
2022/05/30 02:10:42;;;;;;;0.80;0.80;;;14.40;99.90;;;;;;4179157;28;20055;-47
2022/05/30 02:13:05;;;;;;;1.55;0.70;;;14.20;99.90;;;;;;4193772;28;20103;-49
2022/05/30 02:15:26;;;;;;;1.02;0.80;;;14.30;99.90;;;;;;4182836;28;20047;-47
2022/05/30 02:17:48;;;;;;;0.80;0.80;;;14.40;99.90;;;;;;4186909;28;20048;-46
2022/05/30 02:20:09;;;;;;;0.80;0.80;;;14.40;99.90;;;;;;4195054;28;20063;-48
2022/05/30 02:22:30;;;;;;;0.80;0.80;;;14.30;99.90;;;;;;4195019;28;20530;-47
2022/05/30 02:24:51;;;;;;;3.95;0.90;;;14.20;99.90;;;;;;4195634;28;20094;-47
2022/05/30 02:27:12;;;;;;;1.25;0.80;;;14.20;99.90;;;;;;4195578;28;20110;-47
2022/05/30 02:29:34;;;;;;;0.90;0.90;;;14.20;99.90;;;;;;4195015;28;20101;-46
2022/05/30 02:31:57;;;;;;;1.65;1.10;;;14.30;99.90;;;;;;4195389;28;20106;-46
2022/05/30 02:36:57;;;;;;;2.08;0.80;;;14.30;99.90;;;;;;4194818;28;20055;-46
2022/05/30 02:39:21;;;;;;;0.75;0.75;;;14.30;99.90;;;;;;4178713;28;20059;-46
2022/05/30 02:41:44;;;;;;;0.70;0.70;;;14.30;99.90;;;;;;4187817;28;20055;-46
2022/05/30 02:44:05;;;;;;;1.40;0.90;;;14.30;99.90;;;;;;4194921;28;20074;-46
2022/05/30 02:46:26;;;;;;;1.95;0.80;;;14.30;99.90;;;;;;4195183;28;20052;-46
2022/05/30 02:48:47;;;;;;;0.70;0.70;;;14.40;99.90;;;;;;4193961;28;20047;-45
2022/05/30 02:51:08;;;;;;;1.33;1.02;;;14.50;99.90;;;;;;4194818;28;20440;-46
2022/05/30 02:53:30;;;;;;;0.82;0.80;;;14.50;99.90;;;;;;4193809;28;20063;-48
2022/05/30 02:55:51;;;;;;;;;;;14.50;99.90;;;;;;4195402;28;20495;-48
2022/05/30 02:58:12;;;;;;;1.05;0.90;;;14.30;99.90;;;;;;4195162;28;20259;-46
2022/05/30 03:00:35;;;;;;;0.90;0.90;;;14.30;99.90;;;;;;4194400;28;20105;-46
2022/05/30 03:02:56;;;;;;;0.80;0.80;;;14.50;99.90;;;;;;4194900;28;20300;-46
2022/05/30 03:05:17;;;;;;;6.43;1.42;;;14.40;99.90;;;;;;4194606;28;20075;-46
2022/05/30 03:07:38;;;;;;;1.85;0.90;;;14.40;99.90;;;;;;4194474;28;20052;-47
2022/05/30 03:09:58;;;;;;;1.85;0.80;;;14.40;99.90;;;;;;4191631;28;20052;-48
2022/05/30 03:12:20;;;;;;;0.80;0.80;;;14.50;99.90;;;;;;4191194;28;20071;-46
2022/05/30 03:14:41;;;;;;;0.82;0.82;;;14.50;99.90;;;;;;4194653;28;20196;-45
2022/05/30 03:17:02;;;;;;;4.57;0.80;;;14.60;99.90;;;;;;4192297;28;20132;-47
2022/05/30 03:19:23;;;;;;;1.17;0.88;;;14.50;99.90;;;;;;4178048;28;20148;-46
2022/05/30 03:21:44;;;;;;;0.80;0.80;;;14.40;99.90;;;;;;4177935;28;20047;-47
2022/05/30 03:24:05;;;;;;;0.80;0.80;;;14.50;99.90;;;;;;4177251;28;20080;-46
2022/05/30 03:26:26;;;;;;;5.82;0.80;;;14.40;99.90;;;;;;4177816;28;20059;-50
2022/05/30 03:28:47;;;;;;;2.63;0.88;;;14.40;99.90;;;;;;4177881;28;20044;-51
2022/05/30 03:31:08;;;;;;;0.98;0.77;;;14.50;99.90;;;;;;4177874;28;20051;-50
2022/05/30 03:33:29;;;;;;;1.55;0.80;;;14.50;99.90;;;;;;4177985;28;20106;-47
2022/05/30 03:35:50;;;;;;;1.35;0.80;;;14.50;99.90;;;;;;4177569;28;20059;-46
2022/05/30 03:38:11;;;;;;;1.02;1.00;;;14.40;99.90;;;;;;4177537;28;20428;-46
2022/05/30 03:40:32;;;;;;;1.38;0.80;;;14.40;99.90;;;;;;4187455;28;20055;-47
2022/05/30 03:42:54;;;;;;;2.60;0.82;;;14.30;99.90;;;;;;4209919;28;20085;-48
2022/05/30 03:45:14;;;;;;;0.80;0.80;;;14.30;99.90;;;;;;4177333;28;20056;-48
2022/05/30 03:47:40;;;;;;;0.80;0.80;;;14.30;99.90;;;;;;4187709;28;20557;-49
2022/05/30 03:50:04;;;;;;;0.90;0.90;;;14.40;99.90;;;;;;4194534;28;20127;-47
2022/05/30 03:52:25;;;;;;;0.85;0.85;;;14.40;99.90;;;;;;4194150;28;20059;-47
2022/05/30 03:54:46;;;;;;;2.88;0.80;;;14.40;99.90;;;;;;4177832;28;20051;-49
2022/05/30 03:57:07;;;;;;;1.08;0.80;;;14.40;99.90;;;;;;4187731;28;20082;-48
2022/05/30 03:59:29;;;;;;;1.58;0.80;;;14.50;99.90;;;;;;4193734;28;20051;-45
2022/05/30 04:01:53;;;;;;;0.80;0.80;;;14.50;99.90;;;;;;4193979;28;20129;-46
2022/05/30 04:04:15;;;;;;;0.80;0.80;;;14.40;99.90;;;;;;4194115;28;20051;-45
2022/05/30 04:06:35;;;;;;;0.80;0.80;;;14.40;99.90;;;;;;4188207;28;20051;-47
2022/05/30 04:08:57;;;;;;;0.80;0.80;;;14.50;99.90;;;;;;4194043;28;20425;-47
2022/05/30 04:11:17;;;;;;;0.82;0.80;;;14.40;99.90;;;;;;4188964;28;20408;-48
2022/05/30 04:13:38;;;;;;;0.85;0.80;;;14.40;99.90;;;;;;4177563;28;20095;-48
2022/05/30 04:16:12;;;;;;;5.25;0.90;;;14.30;99.90;;;;;;4176453;28;20091;-48
2022/05/30 04:18:33;;;;;;;0.80;0.80;;;14.40;99.90;;;;;;4177196;28;20071;-47
2022/05/30 04:20:53;;;;;;;0.70;0.70;;;14.50;99.90;;;;;;4177482;28;20528;-48
2022/05/30 04:23:15;;;;;;;0.82;0.82;;;14.50;99.90;;;;;;4177940;28;20307;-47
2022/05/30 04:25:36;;;;;;;0.90;0.90;;;14.50;99.90;;;;;;4177452;28;20428;-47
2022/05/30 04:27:56;;;;;;;1.17;1.10;;;14.50;99.90;;;;;;4177055;28;20052;-46
2022/05/30 04:30:19;;;;;;;0.80;0.80;;;14.50;99.90;;;;;;4179648;28;20048;-46
2022/05/30 04:32:39;;;;;;;1.20;0.80;;;14.60;99.90;;;;;;4193263;28;20098;-47
2022/05/30 04:35:01;;;;;;;0.88;0.88;;;14.60;99.90;;;;;;4193657;28;20462;-47
2022/05/30 04:37:22;;;;;;;3.40;0.90;;;14.60;99.90;;;;;;4197136;28;20117;-52
2022/05/30 04:39:42;;;;;;;0.70;0.70;;;14.60;99.90;;;;;;4197433;28;20059;-48
2022/05/30 04:42:05;;;;;;;1.23;0.73;;;14.70;99.90;;;;;;4197369;28;20098;-46
2022/05/30 04:44:26;;;;;;;2.17;0.90;;;14.70;99.90;;;;;;4196934;28;20566;-46
2022/05/30 04:46:58;;;;;;;2.00;0.80;;;14.60;99.90;;;;;;4187173;28;20098;-47
2022/05/30 04:49:19;;;;;;;0.82;0.80;;;14.60;99.90;;;;;;4185349;28;20048;-46
2022/05/30 04:51:39;;;;;;;0.80;0.80;;;14.60;99.90;;;;;;4190547;28;20048;-47
2022/05/30 04:54:00;;;;;;;0.82;0.82;;;14.60;99.90;;;;;;4180340;28;20536;-46
2022/05/30 04:56:21;;;;;;;0.80;0.80;;;14.60;99.90;;;;;;4179843;28;20063;-45
2022/05/30 04:58:42;;;;;;;1.85;0.80;;;14.60;99.90;;;;;;4183256;28;20516;-46
2022/05/30 05:01:10;;;;;;;1.52;0.82;;;14.70;99.90;;;;;;4213207;28;20047;-46
2022/05/30 05:03:32;;;;;;;3.97;0.80;;;14.70;99.90;;;;;;4197215;28;20106;-46
2022/05/30 05:06:03;;;;;;;0.90;0.90;;;14.70;99.90;;;;;;4196613;28;20055;-47
2022/05/30 05:08:49;;;;;;;0.90;0.90;;;14.80;99.90;;;;;;4192506;28;20094;-45
2022/05/30 05:11:14;;;;;;;0.80;0.80;;;14.80;99.90;;;;;;4179832;28;20055;-48
2022/05/30 05:13:35;;;;;;;0.90;0.90;;;14.80;99.90;;;;;;4180073;28;20047;-46
2022/05/30 05:16:00;;;;;;;0.85;0.80;;;14.80;99.90;;;;;;4187383;28;20043;-46
2022/05/30 05:18:20;;;;;;;1.50;0.80;;;14.80;99.90;;;;;;4194781;28;20102;-46
2022/05/30 05:20:42;;;;;;;2.15;0.80;;;14.70;99.90;;;;;;4196046;28;20097;-46
2022/05/30 05:23:04;;;;;;;1.40;0.80;;;14.60;99.90;;;;;;4179676;28;20404;-46
2022/05/30 05:25:26;;;;;;;0.80;0.80;;;14.60;99.90;;;;;;4190780;28;20082;-46
2022/05/30 05:27:50;;;;;;;0.80;0.80;;;14.60;99.90;;;;;;4195608;28;20048;-48
2022/05/30 05:30:11;;;;;;;0.80;0.80;;;14.70;99.90;;;;;;4193479;28;20055;-47
2022/05/30 05:32:32;;;;;;;4.32;1.63;;;14.90;99.90;;;;;;4195675;28;20610;-47
2022/05/30 05:34:53;;;;;;;0.90;0.90;;;14.90;99.90;;;;;;4195722;28;20060;-48
2022/05/30 05:37:13;;;;;;;2.35;0.90;;;15.00;99.90;;;;;;4195743;28;20064;-47
2022/05/30 05:39:34;;;;;;;0.80;0.80;;;15.00;99.90;;;;;;4196079;28;20052;-45
2022/05/30 05:41:55;;;;;;;0.77;0.77;;;15.10;99.90;;;;;;4195668;28;20102;-47
2022/05/30 05:44:16;;;;;;;0.90;0.90;;;14.90;99.90;;;;;;4183246;28;20055;-46
2022/05/30 05:46:37;;;;;;;1.63;0.80;;;15.00;99.90;;;;;;4178832;28;20098;-47
2022/05/30 05:48:59;;;;;;;0.88;0.88;;;15.10;99.90;;;;;;4178800;28;20099;-49
2022/05/30 05:51:21;;;;;;;1.10;1.00;;;15.10;99.90;;;;;;4177893;28;20044;-46
2022/05/30 05:53:42;;;;;;;0.80;0.80;;;15.20;99.90;;;;;;4179114;28;20099;-46
2022/05/30 05:56:15;;;;;;;1.98;0.80;;;15.20;99.90;;;;;;4179308;28;20114;-46
2022/05/30 05:58:36;;;;;;;0.80;0.80;;;15.30;99.90;;;;;;4181027;28;20099;-47
2022/05/30 06:00:57;;;;;;;0.80;0.80;;;15.20;99.90;;;;;;4195244;28;20052;-46
2022/05/30 06:03:18;;;;;;;1.42;0.80;;;15.20;99.90;;;;;;4195282;28;20141;-49
2022/05/30 06:05:39;;;;;;;0.80;0.80;;;15.30;99.90;;;;;;4195399;28;20121;-46
2022/05/30 06:08:01;;;;;;;0.88;0.85;;;15.20;99.90;;;;;;4186739;28;20055;-46
2022/05/30 06:10:21;;;;;;;0.80;0.80;;;15.30;99.90;;;;;;4179064;28;20051;-47
2022/05/30 06:12:43;;;;;;;0.95;0.80;;;15.30;99.90;;;;;;4178668;28;20131;-47
2022/05/30 06:15:05;;;;;;;0.70;0.70;;;15.30;99.90;;;;;;4177654;28;20538;-46
2022/05/30 06:17:26;;;;;;;0.80;0.80;;;15.20;99.90;;;;;;4183293;28;20155;-46
2022/05/30 06:19:47;;;;;;;2.97;0.93;;;15.40;99.90;;;;;;4195096;28;20060;-47
2022/05/30 06:22:09;;;;;;;0.80;0.80;;;15.50;99.90;;;;;;4194943;28;20048;-46
2022/05/30 06:24:30;;;;;;;0.80;0.80;;;15.60;99.90;;;;;;4194978;28;20052;-45
2022/05/30 06:26:51;;;;;;;1.38;1.02;;;15.60;99.90;;;;;;4195389;28;20083;-46
2022/05/30 06:29:13;;;;;;;0.90;0.90;;;15.60;99.90;;;;;;4194953;28;20050;-45
2022/05/30 06:31:35;;;;;;;1.13;0.80;;;15.60;99.90;;;;;;4194837;28;20121;-46
2022/05/30 06:33:59;;;;;;;4.28;0.80;;;15.60;99.90;;;;;;4194903;28;20055;-47
2022/05/30 06:36:22;;;;;;;0.80;0.80;;;15.70;99.90;;;;;;4194473;28;20768;-46
2022/05/30 06:38:44;;;;;;;0.80;0.80;;;15.80;99.90;;;;;;4194937;28;20117;-45
2022/05/30 06:41:17;;;;;;;1.58;0.75;;;15.90;99.90;;;;;;4194809;28;20530;-47
2022/05/30 06:43:45;;;;;;;1.27;0.70;;;16.00;99.90;;;;;;4195036;28;20131;-45
2022/05/30 06:46:06;;;;;;;1.40;0.80;;;16.00;99.90;;;;;;4194536;28;20123;-45
2022/05/30 06:48:27;;;;;;;1.65;0.70;;;15.90;99.90;;;;;;4195065;28;20121;-46
2022/05/30 06:50:47;;;;;;;2.05;0.80;;;16.00;99.90;;;;;;4194264;28;20573;-46
2022/05/30 06:53:08;;;;;;;0.80;0.80;;;16.00;99.90;;;;;;4194798;28;20048;-46
2022/05/30 06:55:31;;;;;;;1.50;0.80;;;16.30;99.90;;;;;;4187276;28;20055;-45
2022/05/30 07:00:32;;;;;;;3.47;1.10;;;16.60;99.90;;;;;;4178032;28;20064;-46
2022/05/30 07:02:53;;;;;;;6.22;0.90;;;16.50;99.90;;;;;;4178085;28;20106;-46
2022/05/30 07:05:14;;;;;;;2.20;0.80;;;16.60;99.90;;;;;;4177868;28;20052;-47
2022/05/30 07:07:38;;;;;;;2.55;1.48;;;16.60;99.90;;;;;;4183399;28;20122;-46
2022/05/30 07:09:58;;;;;;;;;;;16.60;99.90;;;;;;4195169;28;20047;-45
2022/05/30 07:12:19;;;;;;;3.15;1.67;;;16.70;99.90;;;;;;4180785;28;19931;-47
2022/05/30 07:14:40;;;;;;;4.30;1.63;;;16.80;99.90;;;;;;4177746;28;20055;-47
2022/05/30 07:17:01;;;;;;;3.85;1.38;;;16.70;99.90;;;;;;4178727;28;20059;-47
2022/05/30 07:19:22;;;;;;;2.08;1.98;;;16.90;99.90;;;;;;4194364;28;20074;-46
2022/05/30 07:21:42;;;;;;;5.80;2.05;;;16.90;99.90;;;;;;4194137;28;20071;-45
2022/05/30 07:24:06;;;;;;;4.85;1.33;;;17.00;99.90;;;;;;4194488;28;20086;-47
2022/05/30 07:26:28;;;;;;;4.35;1.75;;;17.20;99.90;;;;;;4194266;28;20047;-45
2022/05/30 07:28:51;;;;;;;4.97;1.50;;;17.50;99.90;;;;;;4194371;28;20498;-47
2022/05/30 07:31:15;;;;;;;6.00;2.15;;;17.30;99.90;;;;;;4194078;28;20047;-45
2022/05/30 07:33:38;;;;;;;5.07;2.15;;;17.50;99.90;;;;;;4193844;28;20129;-46
2022/05/30 07:35:59;;;;;;;;;;;17.50;99.90;;;;;;4194545;28;20074;-46
2022/05/30 07:38:20;;;;;;;14.10;2.65;;;17.80;99.90;;;;;;4194276;28;19927;-45
2022/05/30 07:40:41;;;;;;;7.93;2.88;;;17.90;99.90;;;;;;4193615;28;20121;-45
2022/05/30 07:43:01;;;;;;;3.72;1.67;;;17.90;99.90;;;;;;4191352;28;20048;-45
2022/05/30 07:45:22;;;;;;;6.05;2.28;;;18.00;99.90;;;;;;4177232;28;20107;-44
2022/05/30 07:47:43;;;;;;;6.38;3.35;;;18.20;99.90;;;;;;4177345;28;20594;-45
2022/05/30 07:50:06;;;;;;;8.85;3.45;;;18.40;99.90;;;;;;4185017;28;20067;-44
2022/05/30 07:52:27;;;;;;;3.05;1.83;;;18.50;99.90;;;;;;4180479;28;20099;-46
2022/05/30 07:54:48;;;;;;;10.60;2.40;;;18.40;99.90;;;;;;4177309;28;20580;-46
2022/05/30 07:57:10;;;;;;;8.25;2.47;;;18.60;99.90;;;;;;4177433;28;20059;-45
2022/05/30 07:59:31;;;;;;;8.27;2.17;;;18.40;99.90;;;;;;4177288;28;20053;-44
2022/05/30 08:01:52;;;;;;;8.88;2.40;;;18.40;99.90;;;;;;4176857;28;20540;-46
2022/05/30 08:04:15;;;;;;;6.28;2.75;;;18.60;99.90;;;;;;4177267;28;20043;-46
2022/05/30 08:06:35;;;;;;;7.85;1.85;;;18.60;99.90;;;;;;4177519;28;20047;-45
2022/05/30 08:08:57;;;;;;;11.55;2.30;;;18.70;99.90;;;;;;4193427;28;20523;-46
2022/05/30 08:11:18;;;;;;;11.73;3.22;;;18.80;99.90;;;;;;4188264;28;20052;-46
2022/05/30 08:13:43;;;;;;;9.65;2.70;;;18.80;99.90;;;;;;4177097;28;20282;-46
2022/05/30 08:16:07;;;;;;;6.75;2.05;;;18.70;99.90;;;;;;4176881;28;20519;-45
2022/05/30 08:18:28;;;;;;;8.13;2.72;;;18.60;99.90;;;;;;4190138;28;20447;-46
2022/05/30 08:20:50;;;;;;;5.93;3.67;;;18.70;99.90;;;;;;4193582;28;20055;-45
2022/05/30 08:23:11;;;;;;;6.70;2.70;;;18.90;99.90;;;;;;4193630;28;20051;-46
2022/05/30 08:25:32;;;;;;;4.88;2.20;;;19.20;99.90;;;;;;4193590;28;20468;-46
2022/05/30 08:27:53;;;;;;;2.08;1.90;;;19.30;99.90;;;;;;4176997;28;20538;-46
2022/05/30 08:30:18;;;;;;;4.22;1.20;;;19.30;99.90;;;;;;4176963;28;20044;-48
2022/05/30 08:32:42;;;;;;;3.58;1.85;;;19.60;99.90;;;;;;4177134;28;20128;-47
2022/05/30 08:35:05;;;;;;;6.53;2.33;;;19.80;99.90;;;;;;4177009;28;20051;-45
2022/05/30 08:37:30;;;;;;;7.90;1.23;;;20.10;99.90;;;;;;4177211;28;20056;-47
2022/05/30 08:42:31;;;;;;;5.65;1.65;;;20.50;99.90;;;;;;4193118;28;20083;-46
2022/05/30 08:44:52;;;;;;;3.28;1.10;;;20.70;99.90;;;;;;4177069;28;20063;-46
2022/05/30 08:47:41;;;;;;;8.13;1.58;;;20.70;99.90;;;;;;4193322;28;20098;-44
2022/05/30 08:50:30;;;;;;;9.15;1.35;;;20.90;99.90;;;;;;4184233;28;20094;-44
2022/05/30 08:52:54;;;;;;;2.33;1.40;;;21.10;99.90;;;;;;4193172;28;20055;-45
2022/05/30 08:55:40;;;;;;;8.32;1.52;;;21.20;99.90;;;;;;4193235;28;20512;-44
2022/05/30 08:58:24;;;;;;;5.80;1.77;;;21.50;99.90;;;;;;4192881;28;20102;-44
2022/05/30 09:00:54;;;;;;;7.95;1.25;;;21.60;99.90;;;;;;4193328;28;20056;-44
2022/05/30 09:03:30;;;;;;;6.55;1.38;;;21.50;99.90;;;;;;4193336;28;20055;-44
2022/05/30 09:05:58;;;;;;;4.25;1.05;;;21.20;99.90;;;;;;4192987;28;20460;-44
2022/05/30 09:08:29;;;;;;;6.25;1.38;;;21.40;99.90;;;;;;4181680;28;20106;-44
2022/05/30 09:11:22;;;;;;;4.18;1.25;;;21.50;99.90;;;;;;4177844;28;20101;-43
2022/05/30 09:13:50;;;;;;;5.57;1.10;;;21.60;99.90;;;;;;4193179;28;20500;-43
2022/05/30 09:16:17;;;;;;;2.17;0.90;;;21.60;99.90;;;;;;4193707;28;20055;-43
2022/05/30 09:18:46;;;;;;;4.50;1.45;;;21.40;99.90;;;;;;4192703;28;20056;-44
2022/05/30 09:21:08;;;;;;;3.85;1.33;;;21.20;99.90;;;;;;4193052;28;20059;-43
2022/05/30 09:23:29;;;;;;;2.88;0.90;;;21.30;99.90;;;;;;4190732;28;20415;-44
2022/05/30 09:26:07;;;;;;;8.27;1.80;;;21.40;99.90;;;;;;4187546;28;20102;-43
2022/05/30 09:28:38;;;;;;;4.40;1.25;;;21.80;99.90;;;;;;4195137;28;20118;-44
2022/05/30 09:31:17;;;;;;;5.97;1.10;;;21.80;99.90;;;;;;4194677;28;20038;-44
2022/05/30 09:33:42;;;;;;;3.53;1.10;;;21.70;99.90;;;;;;4179079;28;20055;-43
2022/05/30 09:36:19;;;;;;;12.45;1.23;;;21.80;99.90;;;;;;4184587;28;20467;-43
2022/05/30 09:38:48;;;;;;;8.65;1.75;;;22.00;99.90;;;;;;4189782;28;20075;-43
2022/05/30 09:41:17;;;;;;;4.88;1.45;;;21.90;99.90;;;;;;4193246;28;20051;-43
2022/05/30 09:43:55;;;;;;;5.28;1.42;;;21.70;99.90;;;;;;4190934;28;20119;-42
2022/05/30 09:46:21;;;;;;;3.33;0.90;;;21.70;99.90;;;;;;4191688;28;20469;-43
2022/05/30 09:49:03;;;;;;;4.32;1.30;;;21.70;99.90;;;;;;4195443;28;20051;-42
2022/05/30 09:51:42;;;;;;;4.25;1.42;;;21.80;99.90;;;;;;4187783;28;20087;-43
2022/05/30 09:54:06;;;;;;;4.22;0.90;;;21.90;99.90;;;;;;4198692;28;20161;-43
2022/05/30 09:56:29;;;;;;;8.13;1.20;;;22.10;99.90;;;;;;4178974;28;20404;-44
2022/05/30 09:59:25;;;;;;;4.40;1.10;;;22.20;99.90;;;;;;4194308;28;20094;-42
2022/05/30 10:01:51;;;;;;;4.53;1.67;;;22.10;99.90;;;;;;4193504;28;20052;-43
2022/05/30 10:04:38;;;;;;;8.43;1.00;;;22.30;99.90;;;;;;4192800;28;20145;-43
2022/05/30 10:07:18;;;;;;;4.97;1.27;;;22.20;99.90;;;;;;4195155;28;20518;-46
2022/05/30 10:09:59;;;;;;;3.58;0.85;;;22.10;99.90;;;;;;4193807;28;20043;-43
2022/05/30 10:13:01;;;;;;;4.95;1.80;;;22.20;99.90;;;;;;4190388;28;20443;-43
2022/05/30 10:15:24;;;;;;;5.25;1.50;;;22.60;99.90;;;;;;4192030;28;20055;-42
2022/05/30 10:17:45;;;;;;;3.80;1.05;;;22.80;99.90;;;;;;4190026;28;20056;-43
2022/05/30 10:20:14;;;;;;;1.80;0.80;;;23.30;99.90;;;;;;4189481;28;20470;-43
2022/05/30 10:28:49;;;;;;;2.47;0.70;;;23.50;99.90;;;;;;4189383;28;20047;-44
2022/05/30 10:31:28;;;;;;;1.73;0.80;;;23.10;99.90;;;;;;4182366;28;20094;-44
2022/05/30 10:34:35;;;;;;;4.28;0.80;;;23.20;99.90;;;;;;4194974;28;20101;-43
2022/05/30 10:37:22;;;;;;;1.60;1.00;;;23.80;99.90;;;;;;4193221;28;20059;-43
2022/05/30 10:40:07;;;;;;;2.83;0.82;;;24.20;99.90;;;;;;4186321;28;20141;-43
2022/05/30 10:42:42;;;;;;;2.65;1.23;;;23.50;99.90;;;;;;4186933;28;20163;-45
2022/05/30 10:45:18;;;;;;;1.42;1.05;;;23.60;99.90;;;;;;4185697;28;20152;-43
2022/05/30 10:47:45;;;;;;;2.47;0.80;;;24.30;99.90;;;;;;4192847;28;20102;-42
2022/05/30 10:50:17;;;;;;;3.83;0.80;;;24.80;99.90;;;;;;4187762;28;20460;-43
2022/05/30 10:53:00;;;;;;;3.88;0.80;;;24.80;99.90;;;;;;4193090;28;20067;-44
2022/05/30 10:55:36;;;;;;;2.85;0.60;;;24.80;99.90;;;;;;4193899;28;20484;-43
2022/05/30 10:58:01;;;;;;;1.13;0.70;;;25.10;99.90;;;;;;4193462;28;20582;-43
2022/05/30 11:00:28;;;;;;;5.07;0.70;;;25.60;99.90;;;;;;4194659;28;20052;-44
2022/05/30 11:03:23;;;;;;;3.25;0.80;;;25.40;99.90;;;;;;4193253;28;20051;-43
2022/05/30 11:05:48;;;;;;;3.75;0.85;;;24.70;99.90;;;;;;4194731;28;20048;-42
2022/05/30 11:08:45;;;;;;;1.52;0.60;;;24.80;99.90;;;;;;4193415;28;20098;-44
2022/05/30 11:11:14;;;;;;;2.80;0.60;;;25.40;99.90;;;;;;4180176;28;20052;-44
2022/05/30 11:13:46;;;;;;;6.22;0.80;;;25.90;99.90;;;;;;4193913;28;20094;-46
2022/05/30 11:16:28;;;;;;;1.30;0.52;;;25.80;99.50;;;;;;4194696;28;20098;-46
2022/05/30 11:19:00;;;;;;;3.25;0.60;;;26.00;99.50;;;;;;4193408;28;20075;-43
2022/05/30 11:21:37;;;;;;;4.90;0.57;;;25.70;99.90;;;;;;4194364;28;20403;-44
2022/05/30 11:24:03;;;;;;;3.50;0.98;;;25.60;99.90;;;;;;4182908;28;20048;-43
2022/05/30 11:26:48;;;;;;;0.93;0.70;;;25.70;99.90;;;;;;4177690;28;20052;-43
2022/05/30 11:29:38;;;;;;;3.83;0.70;;;25.90;99.90;;;;;;4177276;28;20103;-42
2022/05/30 11:32:41;;;;;;;5.32;0.60;;;25.70;99.90;;;;;;4177349;28;20063;-43
2022/05/30 11:35:05;;;;;;;5.07;1.73;;;25.80;99.90;;;;;;4177133;28;20617;-44
2022/05/30 11:37:51;;;;;;;1.63;0.93;;;25.70;99.90;;;;;;4190319;28;20055;-42
2022/05/30 11:40:37;;;;;;;1.55;0.60;;;26.40;99.90;;;;;;4193844;28;20147;-43
2022/05/30 11:43:07;;;;;;;1.20;0.63;;;25.70;99.90;;;;;;4192061;28;20055;-43
2022/05/30 11:45:51;;;;;;;1.00;0.60;;;26.10;99.30;;;;;;4176047;28;20062;-44
2022/05/30 11:48:43;;;;;;;2.35;0.50;;;26.70;99.90;;;;;;4179960;28;20087;-44
2022/05/30 11:51:27;;;;;;;2.72;0.50;;;27.00;97.00;;;;;;4189653;28;20110;-44
2022/05/30 11:53:53;;;;;;;1.13;0.50;;;27.60;98.20;;;;;;4194199;28;20070;-45
2022/05/30 11:56:31;;;;;;;2.83;0.55;;;28.20;97.20;;;;;;4193852;28;20334;-44
2022/05/30 11:59:11;;;;;;;2.95;0.70;;;27.70;95.50;;;;;;4193736;28;20530;-43
2022/05/30 12:01:35;;;;;;;1.98;0.50;;;27.50;95.70;;;;;;4187646;28;20129;-43
2022/05/30 12:04:04;;;;;;;1.17;0.50;;;27.60;98.30;;;;;;4193502;28;20044;-44
2022/05/30 12:07:03;;;;;;;2.22;0.60;;;27.90;97.10;;;;;;4193566;28;20420;-43
2022/05/30 12:09:52;;;;;;;2.13;0.50;;;28.00;95.90;;;;;;4177430;28;20047;-43
2022/05/30 12:12:51;;;;;;;4.45;0.63;;;28.70;96.80;;;;;;4189715;28;20059;-44
2022/05/30 12:15:47;;;;;;;2.05;0.65;;;28.10;95.00;;;;;;4192471;28;20126;-44
2022/05/30 12:24:28;;;;;;;2.95;0.60;;;28.20;96.90;;;;;;4191266;28;20557;-45
2022/05/30 12:26:56;;;;;;;2.15;0.50;;;28.30;96.10;;;;;;4190959;28;20047;-46
2022/05/30 12:29:38;;;;;;;2.45;0.68;;;27.60;96.30;;;;;;4191236;28;20716;-44
2022/05/30 12:32:23;;;;;;;4.82;0.60;;;27.80;94.80;;;;;;4190919;28;20482;-43
2022/05/30 12:35:21;;;;;;;2.97;0.50;;;26.60;96.30;;;;;;4174830;28;20475;-45
2022/05/30 12:37:45;;;;;;;2.15;0.50;;;26.30;97.20;;;;;;4174460;28;20116;-43
2022/05/30 12:40:27;;;;;;;1.95;0.80;;;26.70;99.60;;;;;;4184676;28;20166;-43
2022/05/30 12:43:15;;;;;;;2.33;0.60;;;26.50;97.90;;;;;;4190852;28;20064;-43
2022/05/30 12:45:41;;;;;;;5.28;0.70;;;26.00;97.70;;;;;;4165368;28;20056;-43
2022/05/30 12:48:41;;;;;;;1.45;0.55;;;26.20;98.90;;;;;;4171527;28;20091;-42
2022/05/30 12:51:18;;;;;;;1.95;0.50;;;26.80;98.30;;;;;;4173642;28;20099;-44
2022/05/30 12:53:55;;;;;;;6.30;0.55;;;27.00;95.90;;;;;;4171811;28;20052;-44
2022/05/30 12:56:38;;;;;;;6.78;1.45;;;27.00;98.20;;;;;;4159844;28;20052;-44
2022/05/30 12:59:03;;;;;;;7.28;0.88;;;26.60;96.20;;;;;;4146517;28;20617;-45
2022/05/30 13:01:28;;;;;;;5.65;0.50;;;26.80;97.00;;;;;;4162460;28;20095;-43
2022/05/30 13:04:44;;;;;;;2.50;0.50;;;26.80;97.80;;;;;;4162449;28;20060;-45
2022/05/30 13:07:05;;;;;;;1.00;0.50;;;27.10;97.50;;;;;;4158863;28;20131;-44
2022/05/30 13:09:45;;;;;;;1.80;0.50;;;27.40;96.90;;;;;;4144688;28;20053;-47
2022/05/30 13:12:11;;;;;;;0.50;0.50;;;27.50;95.60;;;;;;4156141;28;20171;-45